Time;durP1;ratioP1;P1;durP2;ratioP2;P2;SDS_P1;SDS_P2;PMS_P1;PMS_P2;Temp;Humidity;BMP_temperature;BMP_pressure;BME280_temperature;BME280_humidity;BME280_pressure;Samples;Min_cycle;Max_cycle;Signal;HPM_P1;HPM_P2
2020/12/31 00:00:55;;;;;;;140.77;15.50;;;;;;;5.09;82.31;100880.62;1783606;80;20940;-35
2020/12/31 00:03:22;;;;;;;52.58;12.50;;;;;;;5.07;82.30;100878.02;1783596;80;20951;-37
2020/12/31 00:05:50;;;;;;;71.47;14.55;;;;;;;5.08;82.19;100882.30;1783522;80;20998;-36
2020/12/31 00:08:18;;;;;;;230.30;20.27;;;;;;;5.06;82.17;100875.45;1783755;80;21197;-34
2020/12/31 00:10:46;;;;;;;249.90;21.97;;;;;;;5.04;82.18;100889.09;1783580;80;20935;-35
2020/12/31 00:13:14;;;;;;;145.30;16.07;;;;;;;5.00;81.65;100880.09;1783658;80;21077;-37
2020/12/31 00:15:42;;;;;;;86.25;14.50;;;;;;;5.02;82.11;100886.94;1783584;80;20998;-35
2020/12/31 00:18:10;;;;;;;79.15;14.00;;;;;;;5.01;82.06;100878.80;1783631;80;21014;-36
2020/12/31 00:20:38;;;;;;;46.98;13.22;;;;;;;5.00;81.83;100874.95;1783582;80;21371;-35
2020/12/31 00:23:06;;;;;;;28.87;11.18;;;;;;;5.00;81.83;100874.95;1782779;80;20935;-35
2020/12/31 00:25:35;;;;;;;23.35;10.15;;;;;;;4.98;81.75;100873.64;1775067;80;21003;-35
2020/12/31 00:28:03;;;;;;;40.08;12.13;;;;;;;4.96;81.75;100862.94;1728856;80;20995;-35
2020/12/31 00:30:30;;;;;;;49.73;12.53;;;;;;;4.89;81.92;100866.70;1775128;80;20983;-35
2020/12/31 00:32:58;;;;;;;20.62;11.40;;;;;;;4.91;81.91;100864.56;1775146;80;22567;-35
2020/12/31 00:35:28;;;;;;;15.03;9.53;;;;;;;4.91;81.91;100864.56;1775040;80;20948;-36
2020/12/31 00:37:56;;;;;;;20.70;10.45;;;;;;;4.88;81.64;100860.28;1775123;80;21014;-35
2020/12/31 00:40:25;;;;;;;21.23;11.48;;;;;;;4.86;81.64;100856.40;1775001;80;20999;-36
2020/12/31 00:42:53;;;;;;;22.70;10.72;;;;;;;4.84;81.62;100854.24;1775069;80;20967;-35
2020/12/31 00:45:21;;;;;;;17.35;10.82;;;;;;;4.87;81.30;100853.42;1775012;80;21196;-35
2020/12/31 00:47:49;;;;;;;27.42;11.30;;;;;;;4.87;81.30;100853.42;1774924;80;21011;-36
2020/12/31 00:50:17;;;;;;;75.35;13.48;;;;;;;4.86;81.49;100860.69;1775091;80;20936;-35
2020/12/31 00:52:44;;;;;;;33.28;11.70;;;;;;;4.84;81.47;100852.11;1775004;80;20943;-34
2020/12/31 00:55:13;;;;;;;20.97;10.72;;;;;;;4.86;81.38;100854.27;1775073;80;20960;-35
2020/12/31 00:57:42;;;;;;;25.48;11.57;;;;;;;4.86;81.37;100854.27;1775050;80;21243;-35
2020/12/31 01:00:11;;;;;;;19.95;11.90;;;;;;;4.85;81.28;100850.83;1774924;80;21050;-35
2020/12/31 01:02:40;;;;;;;18.23;10.68;;;;;;;4.83;81.26;100841.41;1772460;80;21003;-35
2020/12/31 01:05:09;;;;;;;22.60;12.23;;;;;;;4.83;81.31;100839.70;1774980;80;20936;-36
2020/12/31 01:07:38;;;;;;;16.20;11.75;;;;;;;4.83;81.31;100839.70;1775111;80;20912;-37
2020/12/31 01:10:06;;;;;;;20.32;11.55;;;;;;;4.82;81.20;100846.95;1775034;80;21323;-34
2020/12/31 01:12:35;;;;;;;15.80;10.90;;;;;;;4.80;81.16;100840.95;1775096;80;20940;-37
2020/12/31 01:15:04;;;;;;;16.15;11.10;;;;;;;4.78;81.16;100843.92;1775034;80;21007;-36
2020/12/31 01:17:32;;;;;;;25.92;10.53;;;;;;;4.75;81.17;100841.32;1774959;80;20987;-34
2020/12/31 01:20:01;;;;;;;20.02;11.18;;;;;;;4.72;81.21;100844.70;1775079;80;20974;-35
2020/12/31 01:22:29;;;;;;;36.95;11.90;;;;;;;4.70;81.23;100848.11;1775121;80;21376;-35
2020/12/31 01:24:57;;;;;;;15.48;10.60;;;;;;;4.70;81.26;100850.67;1774797;80;21062;-36
2020/12/31 01:27:27;;;;;;;22.60;11.68;;;;;;;4.70;81.26;100844.26;1775102;80;21007;-37
2020/12/31 01:29:57;;;;;;;17.98;11.60;;;;;;;4.66;81.27;100834.78;1774994;80;21046;-35
2020/12/31 01:32:25;;;;;;;21.52;12.73;;;;;;;4.63;81.25;100831.77;1774994;80;20940;-35
2020/12/31 01:34:53;;;;;;;21.48;11.80;;;;;;;4.59;81.27;100837.28;1774996;80;21206;-36
2020/12/31 01:37:25;;;;;;;17.50;11.18;;;;;;;4.58;81.25;100839.41;1775019;80;21003;-37
2020/12/31 01:39:53;;;;;;;21.80;12.25;;;;;;;4.56;81.31;100838.52;1774940;80;20979;-36
2020/12/31 01:42:20;;;;;;;22.75;12.93;;;;;;;4.53;80.87;100834.64;1775051;80;21007;-36
2020/12/31 01:49:05;;;;;;;19.98;12.55;;;;;;;4.54;81.19;100822.27;1774955;80;21003;-36
2020/12/31 01:51:35;;;;;;;18.23;11.80;;;;;;;4.46;81.17;100833.70;1775096;80;21474;-36
2020/12/31 01:54:04;;;;;;;22.52;13.58;;;;;;;4.41;81.14;100830.63;1774833;80;20936;-35
2020/12/31 01:56:33;;;;;;;17.82;12.13;;;;;;;4.38;81.13;100826.74;1774959;80;21031;-38
2020/12/31 01:59:02;;;;;;;19.95;13.30;;;;;;;4.35;81.16;100833.11;1774997;80;21015;-36
2020/12/31 02:01:31;;;;;;;29.50;13.75;;;;;;;4.28;81.18;100848.83;1774952;80;20983;-34
2020/12/31 02:04:01;;;;;;;184.75;21.57;;;;;;;4.28;81.18;100848.83;1774925;80;21044;-35
2020/12/31 02:06:29;;;;;;;138.97;18.20;;;;;;;4.27;81.27;100847.10;1774996;80;20919;-37
2020/12/31 02:08:57;;;;;;;65.17;15.25;;;;;;;4.26;81.30;100822.31;1774959;80;20928;-36
2020/12/31 02:11:26;;;;;;;37.88;14.33;;;;;;;4.25;81.37;100828.28;1775026;80;20945;-36
2020/12/31 02:13:55;;;;;;;29.70;12.85;;;;;;;4.21;81.52;100835.09;1775024;80;21205;-35
2020/12/31 02:16:36;;;;;;;18.57;12.53;;;;;;;4.20;81.50;100831.20;1774985;80;20979;-37
2020/12/31 02:19:07;;;;;;;17.95;12.00;;;;;;;4.20;81.55;100820.55;1775040;80;21038;-37
2020/12/31 02:21:37;;;;;;;23.65;12.85;;;;;;;4.20;81.57;100841.45;1775027;80;20928;-36
2020/12/31 02:24:07;;;;;;;22.02;12.80;;;;;;;4.14;81.73;100827.73;1775034;80;21462;-36
2020/12/31 02:26:37;;;;;;;32.08;13.72;;;;;;;4.14;81.73;100827.73;1774969;80;21376;-36
2020/12/31 02:29:06;;;;;;;26.37;13.70;;;;;;;4.16;81.68;100835.42;1775032;80;20999;-36
2020/12/31 02:31:35;;;;;;;23.75;13.78;;;;;;;4.15;81.73;100832.02;1774982;80;20952;-34
2020/12/31 02:34:03;;;;;;;17.62;12.40;;;;;;;4.14;81.77;100829.01;1774905;80;21019;-35
2020/12/31 02:36:33;;;;;;;20.48;13.18;;;;;;;4.14;81.81;100831.98;1774945;80;21062;-35
2020/12/31 02:39:07;;;;;;;25.15;13.72;;;;;;;4.14;81.82;100837.10;1774996;80;21208;-36
2020/12/31 02:41:35;;;;;;;23.38;13.50;;;;;;;4.13;81.83;100841.78;1774846;80;21024;-37
2020/12/31 02:44:03;;;;;;;22.50;14.38;;;;;;;4.13;81.54;100845.62;1774991;80;20991;-36
2020/12/31 02:46:32;;;;;;;27.45;13.90;;;;;;;4.13;81.54;100845.62;1775010;80;21506;-35
2020/12/31 02:49:02;;;;;;;21.62;13.83;;;;;;;4.14;81.90;100838.38;1774994;80;21067;-35
2020/12/31 02:51:31;;;;;;;21.00;13.32;;;;;;;4.14;81.91;100833.25;1775037;80;22422;-34
2020/12/31 02:54:01;;;;;;;28.15;14.13;;;;;;;4.12;81.94;100830.69;1774900;80;21094;-36
2020/12/31 02:56:30;;;;;;;22.65;13.98;;;;;;;4.10;82.01;100828.53;1774984;80;20939;-35
2020/12/31 02:58:59;;;;;;;25.37;14.05;;;;;;;4.11;81.99;100826.81;1753434;80;20944;-35
2020/12/31 03:01:27;;;;;;;21.55;14.13;;;;;;;4.10;82.03;100832.38;1775085;80;20995;-34
2020/12/31 03:03:57;;;;;;;23.95;15.45;;;;;;;4.08;82.10;100839.58;1774940;80;22648;-35
2020/12/31 03:06:25;;;;;;;22.27;14.35;;;;;;;4.07;82.12;100835.30;1774980;80;20927;-34
2020/12/31 03:08:53;;;;;;;24.65;14.43;;;;;;;4.07;82.13;100825.05;1775036;80;20936;-35
2020/12/31 03:11:25;;;;;;;20.92;13.20;;;;;;;4.08;82.16;100834.45;1775116;80;20940;-37
2020/12/31 03:13:53;;;;;;;22.45;14.90;;;;;;;4.07;82.19;100836.17;1775141;80;21525;-34
2020/12/31 03:16:21;;;;;;;25.30;15.15;;;;;;;4.08;82.20;100829.33;1775074;80;21312;-34
2020/12/31 03:18:50;;;;;;;29.15;15.00;;;;;;;4.06;82.22;100837.02;1775063;80;21000;-35
2020/12/31 03:21:18;;;;;;;26.05;15.40;;;;;;;4.06;82.26;100836.14;1775089;80;20999;-36
2020/12/31 03:23:50;;;;;;;24.87;15.23;;;;;;;4.03;82.31;100836.54;1775005;80;20927;-35
2020/12/31 03:26:19;;;;;;;21.68;14.85;;;;;;;4.05;82.31;100828.89;1782473;80;21019;-36
2020/12/31 03:28:48;;;;;;;24.75;15.08;;;;;;;4.02;82.39;100834.81;1731444;80;22457;-35
2020/12/31 03:31:17;;;;;;;23.25;15.05;;;;;;;4.01;82.44;100834.38;1783521;80;20943;-35
2020/12/31 03:33:45;;;;;;;23.45;14.05;;;;;;;4.00;82.43;100831.38;1783685;80;20990;-37
2020/12/31 03:36:13;;;;;;;23.42;14.25;;;;;;;4.01;82.46;100831.81;1783677;80;21003;-35
2020/12/31 03:38:41;;;;;;;21.50;14.23;;;;;;;4.01;82.53;100838.62;1783693;80;21077;-35
2020/12/31 03:41:10;;;;;;;23.73;14.58;;;;;;;3.98;82.61;100836.02;1783613;80;21166;-35
2020/12/31 03:43:38;;;;;;;26.65;15.15;;;;;;;3.96;82.63;100830.89;1783531;80;21023;-35
2020/12/31 03:46:06;;;;;;;23.38;14.55;;;;;;;3.95;82.64;100829.17;1783617;80;21058;-35
2020/12/31 03:48:35;;;;;;;24.55;14.70;;;;;;;3.95;82.66;100825.73;1783550;80;21003;-35
2020/12/31 03:51:03;;;;;;;25.35;15.98;;;;;;;3.92;82.72;100815.04;1783534;80;20995;-35
2020/12/31 03:53:32;;;;;;;24.77;15.35;;;;;;;3.87;82.53;100802.56;1783700;80;21166;-35
2020/12/31 03:56:01;;;;;;;24.20;14.73;;;;;;;3.87;82.82;100823.05;1783589;80;21088;-35
2020/12/31 03:58:29;;;;;;;24.63;15.28;;;;;;;3.85;82.85;100823.45;1783570;80;20935;-35
2020/12/31 04:00:57;;;;;;;22.82;14.47;;;;;;;3.84;82.87;100823.00;1783533;80;21272;-35
2020/12/31 04:03:27;;;;;;;26.00;15.48;;;;;;;3.81;82.90;100825.53;1783692;80;20927;-36
2020/12/31 04:05:56;;;;;;;31.95;14.80;;;;;;;3.78;82.97;100832.73;1783542;80;22471;-36
2020/12/31 04:08:24;;;;;;;21.68;13.70;;;;;;;3.77;82.99;100833.56;1783588;80;21034;-35
2020/12/31 04:10:54;;;;;;;28.73;15.55;;;;;;;3.74;83.05;100834.80;1783577;80;21509;-36
2020/12/31 04:13:23;;;;;;;24.25;15.35;;;;;;;3.72;83.09;100830.95;1783520;80;20998;-35
2020/12/31 04:15:51;;;;;;;27.20;15.00;;;;;;;3.71;83.09;100830.92;1783604;80;21051;-37
2020/12/31 04:18:20;;;;;;;24.20;15.85;;;;;;;3.68;83.10;100825.34;1783657;80;22607;-34
2020/12/31 04:20:49;;;;;;;26.23;15.43;;;;;;;3.67;83.09;100827.88;1783501;80;21082;-35
2020/12/31 04:23:17;;;;;;;23.62;15.23;;;;;;;3.64;83.21;100828.67;1783602;80;20928;-35
2020/12/31 04:25:50;;;;;;;24.70;15.83;;;;;;;3.61;83.21;100828.62;1779243;80;20884;-35
2020/12/31 04:28:18;;;;;;;22.90;14.98;;;;;;;3.58;83.28;100842.26;1775082;80;21083;-35
2020/12/31 04:30:49;;;;;;;26.90;15.08;;;;;;;3.56;83.28;100845.61;1775073;80;21209;-37
2020/12/31 04:33:17;;;;;;;28.07;17.23;;;;;;;3.53;83.33;100842.57;1775009;80;21070;-37
2020/12/31 04:35:46;;;;;;;28.40;16.20;;;;;;;3.50;83.34;100834.84;1774993;80;20928;-35
2020/12/31 04:38:14;;;;;;;30.55;16.50;;;;;;;3.47;83.35;100848.03;1774994;80;21015;-35
2020/12/31 04:40:43;;;;;;;23.60;15.53;;;;;;;3.45;83.40;100849.27;1775035;80;21035;-35
2020/12/31 04:43:12;;;;;;;32.38;16.60;;;;;;;3.42;83.43;100851.38;1775061;80;21363;-34
2020/12/31 04:45:40;;;;;;;27.75;17.05;;;;;;;3.40;83.43;100853.02;1774914;80;21181;-35
2020/12/31 04:48:18;;;;;;;25.85;16.45;;;;;;;3.40;83.38;100852.17;1775052;80;20876;-35
2020/12/31 04:50:47;;;;;;;27.13;15.05;;;;;;;3.38;83.42;100839.77;1775037;80;21167;-36
2020/12/31 04:53:15;;;;;;;23.60;15.58;;;;;;;3.35;83.44;100846.97;1775074;80;21065;-35
2020/12/31 04:55:45;;;;;;;33.02;17.82;;;;;;;3.32;83.53;100850.75;1774939;80;21208;-35
2020/12/31 04:58:15;;;;;;;26.82;15.30;;;;;;;3.30;83.56;100849.87;1775019;80;21007;-35
2020/12/31 05:00:44;;;;;;;26.65;15.93;;;;;;;3.26;83.56;100843.82;1774767;80;20959;-35
2020/12/31 05:03:13;;;;;;;22.73;14.95;;;;;;;3.25;83.61;100856.61;1774979;80;21537;-35
2020/12/31 05:05:43;;;;;;;24.85;16.32;;;;;;;3.21;83.72;100850.99;1774912;80;20987;-35
2020/12/31 05:08:11;;;;;;;23.12;15.65;;;;;;;3.19;83.74;100856.50;1775092;80;21359;-35
2020/12/31 05:10:40;;;;;;;28.07;16.15;;;;;;;3.13;83.79;100843.17;1774873;80;21086;-36
2020/12/31 05:13:09;;;;;;;29.82;17.27;;;;;;;3.10;83.86;100843.96;1775129;80;20945;-36
2020/12/31 05:15:41;;;;;;;25.57;16.10;;;;;;;3.04;84.01;100841.30;1775021;80;20912;-37
2020/12/31 05:18:26;;;;;;;25.88;15.95;;;;;;;3.03;84.06;100839.58;1774992;80;20915;-37
2020/12/31 05:20:56;;;;;;;21.25;12.37;;;;;;;3.02;84.11;100832.73;1775158;80;21378;-36
2020/12/31 05:23:26;;;;;;;25.70;17.00;;;;;;;2.98;84.22;100837.36;1774974;80;21011;-35
2020/12/31 05:25:56;;;;;;;25.77;16.05;;;;;;;2.94;84.30;100836.86;1774806;80;20991;-35
2020/12/31 05:28:33;;;;;;;24.10;15.13;;;;;;;2.91;84.44;100838.92;1775090;80;21493;-35
2020/12/31 05:31:10;;;;;;;27.50;15.35;;;;;;;2.92;84.47;100855.15;1774986;80;20999;-36
2020/12/31 05:33:41;;;;;;;25.05;15.43;;;;;;;2.87;84.66;100846.94;1774988;80;21382;-36
2020/12/31 05:36:25;;;;;;;25.70;15.75;;;;;;;2.82;84.80;100852.83;1774931;80;20971;-36
2020/12/31 05:39:01;;;;;;;26.87;15.28;;;;;;;2.79;84.85;100860.00;1775013;80;20932;-36
2020/12/31 05:41:35;;;;;;;25.17;15.58;;;;;;;2.77;84.80;100864.22;1775091;80;21446;-37
2020/12/31 05:44:06;;;;;;;26.42;16.23;;;;;;;2.72;84.88;100864.13;1774980;80;21011;-35
2020/12/31 05:46:38;;;;;;;26.07;15.80;;;;;;;2.68;84.96;100861.50;1775032;80;22173;-37
2020/12/31 05:49:10;;;;;;;25.92;15.48;;;;;;;2.64;85.07;100858.40;1774935;80;20920;-36
2020/12/31 05:51:40;;;;;;;26.80;16.05;;;;;;;2.59;85.16;100854.49;1775008;80;21524;-35
2020/12/31 05:54:14;;;;;;;28.67;16.02;;;;;;;2.53;85.24;100850.11;1774995;80;20919;-36
2020/12/31 05:56:44;;;;;;;27.00;16.70;;;;;;;2.45;85.43;100850.37;1775018;80;20980;-39
2020/12/31 05:59:22;;;;;;;27.58;17.30;;;;;;;2.38;85.49;100853.60;1775049;80;21343;-36
2020/12/31 06:01:59;;;;;;;27.40;16.75;;;;;;;2.32;85.75;100864.58;1774908;80;21067;-36
2020/12/31 06:04:46;;;;;;;30.30;16.55;;;;;;;2.27;85.90;100872.52;1774957;80;20873;-36
2020/12/31 06:07:26;;;;;;;28.52;17.27;;;;;;;2.21;85.96;100869.44;1775033;80;21092;-36
2020/12/31 06:10:03;;;;;;;27.50;16.20;;;;;;;2.15;86.05;100867.60;1774337;80;21002;-36
2020/12/31 06:12:55;;;;;;;33.87;17.47;;;;;;;2.11;86.17;100868.77;1774105;80;21939;-37
2020/12/31 06:15:32;;;;;;;25.17;15.48;;;;;;;2.09;86.37;100863.64;1774895;80;20951;-35
2020/12/31 06:18:02;;;;;;;28.90;16.40;;;;;;;2.09;86.61;100867.87;1774997;80;21015;-36
2020/12/31 06:20:33;;;;;;;23.92;15.40;;;;;;;2.07;86.63;100864.02;1774918;80;21062;-36
2020/12/31 06:23:06;;;;;;;27.17;16.17;;;;;;;2.07;86.87;100865.70;1775023;80;21003;-36
2020/12/31 06:25:44;;;;;;;28.87;15.65;;;;;;;2.09;86.91;100868.75;1774309;80;21370;-39
2020/12/31 06:28:21;;;;;;;25.08;16.02;;;;;;;2.10;86.95;100864.48;1774950;80;20944;-36
2020/12/31 06:30:51;;;;;;;26.07;14.73;;;;;;;2.13;86.97;100867.98;1774845;80;20963;-38
2020/12/31 06:33:33;;;;;;;24.00;15.15;;;;;;;2.18;87.05;100868.09;1774934;80;20971;-37
2020/12/31 06:36:02;;;;;;;24.72;14.50;;;;;;;2.21;86.99;100869.44;1774934;80;21031;-38
2020/12/31 06:38:36;;;;;;;28.65;14.25;;;;;;;2.25;86.96;100866.52;1775024;80;21500;-38
2020/12/31 06:41:08;;;;;;;24.43;14.58;;;;;;;2.28;86.87;100863.63;1774825;80;20951;-35
2020/12/31 06:43:38;;;;;;;23.87;14.18;;;;;;;2.29;86.83;100869.62;1771921;80;21450;-36
2020/12/31 06:46:19;;;;;;;23.65;13.80;;;;;;;2.29;86.87;100872.17;1775056;80;21007;-36
2020/12/31 06:48:52;;;;;;;23.12;13.85;;;;;;;2.32;86.86;100871.36;1775116;80;21019;-35
2020/12/31 06:51:25;;;;;;;20.80;13.68;;;;;;;2.35;86.84;100871.42;1775136;80;21210;-36
2020/12/31 06:53:53;;;;;;;20.65;12.68;;;;;;;2.43;86.80;100873.75;1775138;80;21020;-35
2020/12/31 06:56:46;;;;;;;20.82;13.65;;;;;;;2.50;86.77;100870.49;1775119;80;21003;-37
2020/12/31 06:59:29;;;;;;;21.48;12.78;;;;;;;2.59;86.63;100877.06;1775122;80;20999;-36
2020/12/31 07:02:00;;;;;;;21.80;12.78;;;;;;;2.69;86.52;100882.39;1775042;80;21497;-37
2020/12/31 07:04:34;;;;;;;18.15;12.28;;;;;;;2.79;86.42;100874.50;1775108;80;21375;-35
2020/12/31 07:07:26;;;;;;;16.32;12.03;;;;;;;2.84;86.28;100884.40;1774738;80;21035;-36
2020/12/31 07:09:59;;;;;;;30.92;11.75;;;;;;;2.93;85.97;100885.00;1757739;80;21062;-36
2020/12/31 07:12:41;;;;;;;18.52;11.05;;;;;;;3.01;85.79;100887.28;1775134;80;20912;-36
2020/12/31 07:15:09;;;;;;;16.42;10.82;;;;;;;3.07;85.57;100886.12;1775100;80;20999;-36
2020/12/31 07:17:40;;;;;;;19.20;11.80;;;;;;;3.11;85.38;100889.17;1775164;80;21201;-35
2020/12/31 07:20:13;;;;;;;18.73;11.40;;;;;;;3.16;85.32;100882.48;1774984;80;20960;-38
2020/12/31 07:22:41;;;;;;;16.60;12.05;;;;;;;3.23;85.12;100882.58;1775188;80;20960;-36
2020/12/31 07:25:15;;;;;;;16.55;11.50;;;;;;;3.30;84.95;100878.89;1775007;80;21006;-36
2020/12/31 07:27:45;;;;;;;26.20;14.28;;;;;;;3.35;84.78;100884.08;1779400;80;20999;-38
2020/12/31 07:30:21;;;;;;;21.93;12.93;;;;;;;3.38;84.66;100879.01;1780968;80;21807;-36
2020/12/31 07:33:00;;;;;;;24.65;14.93;;;;;;;3.40;84.27;100886.30;1780798;80;20995;-39
2020/12/31 07:35:37;;;;;;;24.60;14.83;;;;;;;3.43;84.07;100882.53;1780833;80;20998;-34
2020/12/31 07:38:15;;;;;;;26.52;14.73;;;;;;;3.44;83.91;100891.94;1780935;80;21446;-37
2020/12/31 07:40:56;;;;;;;23.05;13.83;;;;;;;3.48;83.69;100889.00;1780818;80;21042;-35
2020/12/31 07:43:26;;;;;;;22.42;14.68;;;;;;;3.48;83.62;100886.88;1780916;80;21268;-36
2020/12/31 07:45:57;;;;;;;21.27;13.25;;;;;;;3.51;83.55;100894.17;1780725;80;20987;-35
2020/12/31 07:48:26;;;;;;;22.90;13.72;;;;;;;3.57;83.46;100903.66;1780906;80;20978;-36
2020/12/31 07:51:05;;;;;;;20.27;12.85;;;;;;;3.61;83.27;100902.88;1780833;80;20967;-36
2020/12/31 07:53:35;;;;;;;21.75;12.85;;;;;;;3.65;83.23;100903.37;1780798;80;20983;-37
2020/12/31 07:56:04;;;;;;;19.92;13.32;;;;;;;3.70;82.99;100905.61;1780792;80;21485;-36
2020/12/31 07:58:33;;;;;;;22.07;13.55;;;;;;;3.74;82.89;100900.98;1780872;80;20999;-37
2020/12/31 08:01:06;;;;;;;16.82;11.33;;;;;;;3.84;82.78;100896.88;1780783;80;21034;-36
2020/12/31 08:03:34;;;;;;;17.35;11.15;;;;;;;3.88;82.51;100902.89;1780795;80;20983;-35
2020/12/31 08:06:04;;;;;;;22.32;12.30;;;;;;;3.91;82.36;100903.38;1780869;80;21015;-35
2020/12/31 08:08:34;;;;;;;17.77;12.13;;;;;;;3.93;82.13;100902.98;1780859;80;21271;-36
2020/12/31 08:11:10;;;;;;;17.23;11.10;;;;;;;3.94;81.86;100903.42;1780688;80;20991;-37
2020/12/31 08:13:38;;;;;;;14.93;10.75;;;;;;;3.93;81.77;100896.58;1780861;80;20927;-37
2020/12/31 08:16:14;;;;;;;18.27;11.00;;;;;;;3.96;81.63;100898.78;1780813;80;20939;-36
2020/12/31 08:18:42;;;;;;;14.87;10.63;;;;;;;3.96;81.46;100900.06;1754168;80;20975;-35
2020/12/31 08:21:10;;;;;;;16.32;10.08;;;;;;;3.92;81.34;100897.01;1780857;80;21213;-35
2020/12/31 08:23:39;;;;;;;15.00;10.30;;;;;;;3.92;81.38;100889.73;1780789;80;20964;-35
2020/12/31 08:26:10;;;;;;;14.75;9.80;;;;;;;3.91;81.34;100886.72;1752768;80;20887;-36
2020/12/31 08:28:38;;;;;;;17.60;11.28;;;;;;;3.89;81.54;100885.41;1780811;80;21454;-36
2020/12/31 08:31:12;;;;;;;14.15;9.23;;;;;;;3.91;81.39;100890.56;1780787;80;20919;-34
2020/12/31 08:33:40;;;;;;;12.95;9.50;;;;;;;3.92;81.25;100889.33;1752557;80;21465;-35
2020/12/31 08:36:09;;;;;;;14.90;9.58;;;;;;;3.93;81.21;100889.77;1780758;80;20947;-36
2020/12/31 08:38:39;;;;;;;15.28;9.25;;;;;;;3.92;81.24;100882.92;1780847;80;20888;-36
2020/12/31 08:41:08;;;;;;;12.00;8.53;;;;;;;3.89;81.04;100889.25;1780823;80;20956;-36
2020/12/31 08:43:38;;;;;;;12.23;8.78;;;;;;;3.84;81.30;100884.07;1780866;80;20915;-36
2020/12/31 08:46:23;;;;;;;14.87;9.33;;;;;;;3.84;81.30;100884.07;1780869;80;21436;-37
2020/12/31 08:48:53;;;;;;;14.15;9.35;;;;;;;3.82;81.42;100888.31;1780836;80;21050;-36
2020/12/31 08:51:21;;;;;;;14.18;8.78;;;;;;;3.80;81.52;100879.74;1780795;80;21003;-37
2020/12/31 08:53:59;;;;;;;12.73;8.65;;;;;;;3.85;81.54;100883.64;1779999;80;20971;-37
2020/12/31 08:56:32;;;;;;;11.25;7.78;;;;;;;3.86;81.54;100881.52;1780786;80;20936;-38
2020/12/31 08:59:17;;;;;;;11.50;8.35;;;;;;;3.89;81.62;100877.72;1780866;80;22134;-37
2020/12/31 09:01:46;;;;;;;11.22;8.18;;;;;;;3.91;81.60;100880.32;1780745;80;20959;-36
2020/12/31 09:04:19;;;;;;;13.93;8.58;;;;;;;3.95;81.41;100882.09;1780808;80;20971;-37
2020/12/31 09:06:52;;;;;;;13.48;9.30;;;;;;;3.96;81.45;100884.69;1780653;80;20999;-36
2020/12/31 09:09:27;;;;;;;11.10;8.23;;;;;;;3.99;81.43;100881.30;1780843;80;21015;-36
2020/12/31 09:12:03;;;;;;;;;;;;;;;4.03;81.19;100868.97;1783510;80;21201;-36
2020/12/31 09:14:33;;;;;;;8.93;7.53;;;;;;;4.04;80.87;100870.69;1780684;80;20116;-36
2020/12/31 09:17:24;;;;;;;11.68;8.33;;;;;;;4.00;81.19;100881.33;1780783;80;20944;-36
2020/12/31 09:19:54;;;;;;;10.75;7.92;;;;;;;4.00;81.19;100881.33;1746215;82;20982;-38
2020/12/31 09:22:24;;;;;;;11.25;7.17;;;;;;;4.00;80.86;100877.89;1771535;80;20991;-36
2020/12/31 09:24:53;;;;;;;9.13;7.00;;;;;;;3.98;80.80;100873.16;1780719;80;21208;-38
2020/12/31 09:27:25;;;;;;;11.50;8.40;;;;;;;3.98;80.86;100873.16;1780553;80;20971;-35
2020/12/31 09:30:00;;;;;;;10.53;8.28;;;;;;;3.98;80.84;100877.89;1780766;80;21349;-36
2020/12/31 09:32:29;;;;;;;12.05;7.08;;;;;;;4.00;80.70;100877.48;1780820;80;20911;-35
2020/12/31 09:34:59;;;;;;;13.62;8.10;;;;;;;3.98;80.80;100859.95;1780308;80;20932;-35
2020/12/31 09:37:27;;;;;;;8.73;7.83;;;;;;;4.03;80.87;100862.56;1780866;80;21371;-36
2020/12/31 09:39:56;;;;;;;8.10;7.25;;;;;;;4.08;80.87;100862.64;1780717;80;21006;-36
2020/12/31 09:42:25;;;;;;;10.60;7.08;;;;;;;4.15;80.60;100861.88;1780738;80;20979;-36
2020/12/31 09:44:54;;;;;;;8.43;7.00;;;;;;;4.17;80.52;100849.98;1780702;80;21007;-37
2020/12/31 09:47:22;;;;;;;11.68;7.47;;;;;;;4.24;80.49;100847.94;1780797;80;21027;-36
2020/12/31 09:49:50;;;;;;;10.55;7.83;;;;;;;4.24;80.49;100847.94;1752567;80;21381;-37
2020/12/31 09:52:18;;;;;;;12.53;8.38;;;;;;;4.32;80.12;100833.95;1780798;80;21054;-37
2020/12/31 09:54:46;;;;;;;10.10;7.40;;;;;;;4.36;79.96;100830.59;1780690;80;20935;-35
2020/12/31 09:57:15;;;;;;;11.63;7.92;;;;;;;4.45;79.71;100828.57;1780708;80;21002;-36
2020/12/31 09:59:43;;;;;;;8.58;7.30;;;;;;;4.45;79.71;100828.57;1780668;80;20967;-34
2020/12/31 10:02:12;;;;;;;13.25;7.92;;;;;;;4.50;79.36;100828.20;1780778;80;21268;-36
2020/12/31 10:04:40;;;;;;;9.08;6.95;;;;;;;4.53;78.88;100826.95;1780632;80;20939;-37
2020/12/31 10:07:10;;;;;;;10.88;7.47;;;;;;;4.52;78.74;100816.26;1780794;80;20939;-36
2020/12/31 10:09:40;;;;;;;13.43;7.85;;;;;;;4.55;78.66;100822.70;1780647;80;21022;-35
2020/12/31 10:12:13;;;;;;;9.90;8.05;;;;;;;4.59;78.76;100818.48;1780780;80;20920;-36
2020/12/31 10:14:42;;;;;;;13.30;7.85;;;;;;;4.70;78.74;100813.48;1780720;80;21371;-36
2020/12/31 10:17:10;;;;;;;9.48;7.72;;;;;;;4.91;77.64;100800.02;1780697;80;20939;-36
2020/12/31 10:19:38;;;;;;;9.68;7.75;;;;;;;4.91;76.83;100800.42;1780697;80;21126;-36
2020/12/31 10:22:06;;;;;;;12.78;8.00;;;;;;;4.91;76.83;100800.42;1780803;80;21116;-36
2020/12/31 10:24:34;;;;;;;9.90;7.70;;;;;;;4.82;77.08;100797.38;1752666;80;20992;-35
2020/12/31 10:27:03;;;;;;;10.85;8.23;;;;;;;4.85;77.09;100803.37;1780655;80;22158;-35
2020/12/31 10:29:31;;;;;;;9.05;7.35;;;;;;;4.88;76.96;100797.42;1780671;80;21069;-36
2020/12/31 10:32:00;;;;;;;10.10;7.70;;;;;;;4.87;76.84;100795.27;1780714;80;21070;-36
2020/12/31 10:34:28;;;;;;;11.38;7.87;;;;;;;4.86;76.59;100783.73;1780664;80;20945;-37
2020/12/31 10:36:57;;;;;;;9.40;7.70;;;;;;;4.79;76.98;100784.08;1780764;80;20932;-36
2020/12/31 10:39:25;;;;;;;11.48;7.90;;;;;;;4.82;77.07;100784.55;1780785;80;21419;-35
2020/12/31 10:42:52;;;;;;;9.38;8.25;;;;;;;4.92;76.87;100782.91;1777093;79;22059;-37
2020/12/31 10:45:20;;;;;;;9.28;7.70;;;;;;;4.87;76.68;100781.59;1749811;80;21063;-35
2020/12/31 10:47:49;;;;;;;9.18;6.85;;;;;;;4.85;76.89;100773.88;1749774;82;21165;-36
2020/12/31 10:50:17;;;;;;;11.33;8.45;;;;;;;4.86;76.96;100774.75;1749759;82;20987;-37
2020/12/31 10:52:46;;;;;;;10.03;7.92;;;;;;;4.88;76.56;100773.90;1749692;81;21034;-36
2020/12/31 10:55:14;;;;;;;10.28;8.20;;;;;;;4.74;77.25;100773.76;1749758;82;20979;-36
2020/12/31 10:57:43;;;;;;;11.05;7.95;;;;;;;4.74;77.25;100773.76;1749806;82;20880;-37
2020/12/31 11:00:11;;;;;;;9.48;7.22;;;;;;;4.74;76.99;100767.78;1749688;81;21372;-35
2020/12/31 11:02:41;;;;;;;13.18;8.00;;;;;;;4.74;77.16;100775.48;1749413;81;21038;-36
2020/12/31 11:05:09;;;;;;;11.95;8.30;;;;;;;4.74;76.62;100770.34;1749690;82;20987;-37
2020/12/31 11:07:37;;;;;;;12.80;8.83;;;;;;;4.63;76.94;100765.10;1749705;82;21010;-36
2020/12/31 11:10:05;;;;;;;10.65;7.35;;;;;;;4.56;77.08;100766.73;1749749;82;20916;-36
2020/12/31 11:12:34;;;;;;;10.65;7.92;;;;;;;4.54;77.28;100773.95;1749808;82;21196;-35
2020/12/31 11:15:02;;;;;;;10.23;7.75;;;;;;;4.54;77.52;100775.23;1749621;81;21015;-36
2020/12/31 11:17:30;;;;;;;9.68;7.70;;;;;;;4.57;77.45;100773.58;1749726;81;20896;-36
2020/12/31 11:20:02;;;;;;;11.53;8.10;;;;;;;4.57;77.32;100762.48;1749683;81;21038;-37
2020/12/31 11:22:30;;;;;;;10.20;8.45;;;;;;;4.50;77.28;100761.95;1749750;82;20888;-36
2020/12/31 11:24:58;;;;;;;10.03;8.05;;;;;;;4.42;77.94;100761.44;1749682;82;21201;-36
2020/12/31 11:27:26;;;;;;;13.78;9.03;;;;;;;4.42;77.94;100761.44;1749770;82;21490;-35
2020/12/31 11:29:54;;;;;;;13.85;9.38;;;;;;;4.38;77.70;100757.53;1749699;82;21006;-36
2020/12/31 11:32:23;;;;;;;12.13;9.15;;;;;;;4.34;77.92;100758.34;1749765;82;21011;-35
2020/12/31 11:34:51;;;;;;;15.90;8.80;;;;;;;4.36;77.76;100751.53;1749632;82;21024;-36
2020/12/31 11:37:19;;;;;;;10.45;8.50;;;;;;;4.25;77.90;100754.84;1749752;81;21187;-36
2020/12/31 11:39:48;;;;;;;17.37;9.48;;;;;;;4.25;77.90;100754.84;1749635;82;21007;-36